Terminal Aerodrome Forecast
Issued by NWS

Home | Current Version | Previous Version | Text Only | Print | Product List | Glossary On
Versions: 1 2 3 4 5 6 7 8 9 10 11 12 13 14
329
FTUS42 KMLB 171738
TAFSUA
TAF
KSUA 171738Z 1718/1818 31008KT P6SM FEW250
     FM172200 30006KT P6SM FEW040
     FM181500 35010KT P6SM SKC=

USA.gov is the U.S. government's official web portal to all federal, state and local government web resources and services.